Time;durP1;ratioP1;P1;durP2;ratioP2;P2;SDS_P1;SDS_P2;PMS_P1;PMS_P2;Temp;Humidity;BMP_temperature;BMP_pressure;BME280_temperature;BME280_humidity;BME280_pressure;Samples;Min_cycle;Max_cycle;Signal;HPM_P1;HPM_P2
2021/05/24 00:00:17;;;;;;;37.50;6.65;;;22.50;91.50;;;;;;4364639;32;20141;-66
2021/05/24 00:02:43;;;;;;;37.33;7.28;;;22.80;81.50;;;;;;4364341;32;20089;-64
2021/05/24 00:05:13;;;;;;;29.85;6.43;;;22.90;71.30;;;;;;4339488;32;20523;-63
2021/05/24 00:07:40;;;;;;;37.95;7.05;;;23.00;63.60;;;;;;4364856;32;20073;-64
2021/05/24 00:10:09;;;;;;;32.88;6.53;;;23.00;59.80;;;;;;4352303;32;20072;-63
2021/05/24 00:12:36;;;;;;;48.00;6.93;;;22.90;57.70;;;;;;4364403;32;20074;-64
2021/05/24 00:15:03;;;;;;;36.28;7.05;;;22.90;55.90;;;;;;4364693;32;20078;-64
2021/05/24 00:17:29;;;;;;;36.22;6.72;;;23.00;52.60;;;;;;4364284;32;20425;-64
2021/05/24 00:19:56;;;;;;;38.63;6.87;;;23.10;49.80;;;;;;4363915;32;20533;-63
2021/05/24 00:22:22;;;;;;;44.30;7.53;;;23.00;48.60;;;;;;4363709;32;20077;-63
2021/05/24 00:24:49;;;;;;;48.38;8.20;;;22.90;49.10;;;;;;4339725;32;20089;-66
2021/05/24 00:27:15;;;;;;;41.88;7.30;;;22.90;48.00;;;;;;4364028;32;20113;-65
2021/05/24 00:29:42;;;;;;;45.55;7.62;;;23.00;45.90;;;;;;4351598;32;20158;-64
2021/05/24 00:32:08;;;;;;;58.10;7.68;;;23.00;45.20;;;;;;4363915;32;20054;-64
2021/05/24 00:34:34;;;;;;;42.08;7.00;;;22.90;44.80;;;;;;4376443;32;20093;-64
2021/05/24 00:37:00;;;;;;;47.95;7.43;;;23.00;44.00;;;;;;4376678;32;20511;-64
2021/05/24 00:39:26;;;;;;;41.03;7.65;;;22.90;44.20;;;;;;4376900;32;20501;-64
2021/05/24 00:41:52;;;;;;;39.53;7.32;;;22.80;45.80;;;;;;4376338;32;20170;-63
2021/05/24 00:44:18;;;;;;;37.25;7.05;;;22.50;47.30;;;;;;4339427;32;20092;-64
2021/05/24 00:46:45;;;;;;;34.92;6.95;;;22.30;51.80;;;;;;4363710;32;20077;-64
2021/05/24 00:49:11;;;;;;;45.45;7.15;;;22.20;52.90;;;;;;4351371;32;20167;-64
2021/05/24 00:51:37;;;;;;;36.33;6.68;;;22.10;53.50;;;;;;4376067;32;20090;-64
2021/05/24 00:54:04;;;;;;;45.00;8.15;;;22.10;53.20;;;;;;4351474;32;20166;-64
2021/05/24 00:56:30;;;;;;;45.42;6.87;;;22.20;53.60;;;;;;4339077;32;20081;-63
2021/05/24 00:58:56;;;;;;;38.33;6.72;;;22.10;53.00;;;;;;4364089;32;20156;-64
2021/05/24 01:01:23;;;;;;;40.10;7.97;;;22.10;51.10;;;;;;4363838;32;20074;-62
2021/05/24 01:03:49;;;;;;;36.53;6.80;;;22.20;53.00;;;;;;4339155;32;20124;-64
2021/05/24 01:06:16;;;;;;;38.63;6.75;;;22.10;54.30;;;;;;4363688;32;20070;-64
2021/05/24 01:08:42;;;;;;;40.88;7.55;;;21.90;55.60;;;;;;4363189;32;20497;-64
2021/05/24 01:11:08;;;;;;;26.55;6.25;;;21.90;55.90;;;;;;4363560;32;20512;-63
2021/05/24 01:13:35;;;;;;;27.55;5.93;;;21.30;75.50;;;;;;4351415;32;20173;-63
2021/05/24 01:16:01;;;;;;;30.35;5.95;;;20.90;90.90;;;;;;4363815;32;20080;-64
2021/05/24 01:18:28;;;;;;;25.83;6.15;;;20.70;97.70;;;;;;4351263;32;20105;-63
2021/05/24 01:20:54;;;;;;;18.05;5.95;;;20.60;99.90;;;;;;4376190;32;20066;-64
2021/05/24 01:23:26;;;;;;;22.73;7.10;;;20.40;99.90;;;;;;4363674;32;20452;-63
2021/05/24 01:25:52;;;;;;;16.05;6.78;;;20.20;99.90;;;;;;4364387;32;20153;-64
2021/05/24 01:28:20;;;;;;;16.35;6.62;;;20.10;99.90;;;;;;4351237;32;20063;-63
2021/05/24 01:30:47;;;;;;;15.45;6.45;;;20.00;99.90;;;;;;4351227;32;20070;-63
2021/05/24 01:33:13;;;;;;;17.62;6.37;;;20.00;99.90;;;;;;4350780;32;20101;-64
2021/05/24 01:35:40;;;;;;;17.62;6.70;;;20.00;99.90;;;;;;4363115;32;20084;-65
2021/05/24 01:38:11;;;;;;;16.48;6.03;;;20.30;99.90;;;;;;4363287;32;20524;-64
2021/05/24 01:40:40;;;;;;;19.17;6.95;;;20.30;99.90;;;;;;4350533;32;20449;-62
2021/05/24 01:43:07;;;;;;;26.65;6.43;;;20.30;99.90;;;;;;4363610;32;20070;-64
2021/05/24 01:45:33;;;;;;;16.35;6.45;;;20.50;99.90;;;;;;4363199;32;20077;-64
2021/05/24 01:48:00;;;;;;;16.80;6.37;;;20.70;99.90;;;;;;4338863;32;20102;-64
2021/05/24 01:50:27;;;;;;;18.70;6.10;;;20.90;99.90;;;;;;4350507;32;20575;-64
2021/05/24 01:52:53;;;;;;;17.62;6.43;;;21.10;99.90;;;;;;4363333;32;20500;-64
2021/05/24 01:55:19;;;;;;;18.05;6.85;;;21.10;99.90;;;;;;4363347;32;20053;-64
2021/05/24 01:57:46;;;;;;;18.25;5.97;;;21.20;99.90;;;;;;4375606;32;20097;-62
2021/05/24 02:00:15;;;;;;;17.17;5.55;;;21.20;99.90;;;;;;4376940;32;20086;-63
2021/05/24 02:02:45;;;;;;;19.90;5.53;;;21.50;99.90;;;;;;4350720;32;20082;-63
2021/05/24 02:05:13;;;;;;;25.15;7.22;;;21.50;99.90;;;;;;4350816;32;20097;-64
2021/05/24 02:07:39;;;;;;;22.67;6.18;;;21.60;99.90;;;;;;4362988;32;20094;-64
2021/05/24 02:10:08;;;;;;;27.98;5.93;;;21.80;99.90;;;;;;4363153;32;20141;-64
2021/05/24 02:12:34;;;;;;;28.85;5.97;;;22.00;99.90;;;;;;4350746;32;20522;-62
2021/05/24 02:15:01;;;;;;;24.80;5.82;;;22.00;99.90;;;;;;4350823;32;20096;-63
2021/05/24 02:17:27;;;;;;;23.58;5.62;;;22.20;99.90;;;;;;4362870;32;20078;-64
2021/05/24 02:19:54;;;;;;;23.87;6.37;;;22.30;99.90;;;;;;4350481;32;20081;-63
2021/05/24 02:22:20;;;;;;;25.65;5.78;;;22.40;99.90;;;;;;4350999;32;20093;-63
2021/05/24 02:24:46;;;;;;;24.77;6.32;;;22.30;99.90;;;;;;4363250;32;20077;-64
2021/05/24 02:27:13;;;;;;;23.02;5.78;;;22.20;99.90;;;;;;4350231;32;20082;-64
2021/05/24 02:29:40;;;;;;;24.15;6.12;;;22.20;99.90;;;;;;4362825;32;20062;-63
2021/05/24 02:32:07;;;;;;;21.17;5.53;;;22.10;99.90;;;;;;4362443;32;20070;-64
2021/05/24 02:34:33;;;;;;;23.95;6.40;;;22.00;99.90;;;;;;4337767;32;20069;-63
2021/05/24 02:36:59;;;;;;;22.70;6.20;;;22.00;99.90;;;;;;4359995;32;20253;-63
2021/05/24 02:39:26;;;;;;;23.27;6.45;;;21.70;99.90;;;;;;4335033;32;20456;-64
2021/05/24 02:41:52;;;;;;;14.70;5.53;;;21.70;99.90;;;;;;4347568;32;20504;-65
2021/05/24 02:44:18;;;;;;;15.23;6.87;;;21.50;99.90;;;;;;4349345;32;20165;-64
2021/05/24 02:46:44;;;;;;;16.23;7.37;;;21.40;99.90;;;;;;4350311;32;20155;-65
2021/05/24 02:49:11;;;;;;;11.98;7.70;;;21.40;99.90;;;;;;4362957;32;20457;-64
2021/05/24 02:51:37;;;;;;;11.27;7.47;;;21.00;99.90;;;;;;4351088;32;20064;-64
2021/05/24 02:54:05;;;;;;;11.93;7.28;;;21.10;99.90;;;;;;4326276;32;20092;-63
2021/05/24 02:56:31;;;;;;;15.02;7.18;;;21.20;99.90;;;;;;4351120;32;20169;-64
2021/05/24 02:58:58;;;;;;;11.20;7.00;;;21.10;99.90;;;;;;4338567;32;20509;-65
2021/05/24 03:01:26;;;;;;;14.48;7.45;;;20.80;99.90;;;;;;4337772;32;20066;-64
2021/05/24 03:03:57;;;;;;;19.42;8.27;;;21.10;99.90;;;;;;4351016;32;20073;-63
2021/05/24 03:06:24;;;;;;;20.17;7.22;;;20.60;99.90;;;;;;4339066;32;20071;-64
2021/05/24 03:08:50;;;;;;;10.90;6.43;;;21.00;99.90;;;;;;4338441;32;20146;-64
2021/05/24 03:11:20;;;;;;;9.95;6.50;;;21.30;99.90;;;;;;4326054;32;20094;-63
2021/05/24 03:13:46;;;;;;;11.02;5.70;;;21.20;99.90;;;;;;4337890;32;20153;-64
2021/05/24 03:16:12;;;;;;;9.90;5.90;;;21.10;99.90;;;;;;4338108;32;20446;-64
2021/05/24 03:18:38;;;;;;;13.65;5.70;;;20.80;99.90;;;;;;4363711;32;20075;-64
2021/05/24 03:21:06;;;;;;;9.18;5.25;;;20.70;99.90;;;;;;4365090;32;20522;-64
2021/05/24 03:23:32;;;;;;;8.52;5.32;;;20.70;99.90;;;;;;4352943;32;20113;-64
2021/05/24 03:25:58;;;;;;;11.90;5.35;;;20.80;99.90;;;;;;4352815;32;20066;-63
2021/05/24 03:28:25;;;;;;;7.00;5.10;;;20.80;99.90;;;;;;4340347;32;20090;-63
2021/05/24 03:30:51;;;;;;;10.30;6.03;;;21.20;99.90;;;;;;4365008;32;20074;-63
2021/05/24 03:33:17;;;;;;;9.07;6.00;;;21.00;99.90;;;;;;4377446;32;20081;-63
2021/05/24 03:35:43;;;;;;;7.53;5.93;;;21.10;99.90;;;;;;4352766;32;20533;-64
2021/05/24 03:38:09;;;;;;;12.88;6.22;;;21.30;99.90;;;;;;4352975;32;20082;-64
2021/05/24 03:40:36;;;;;;;9.75;6.07;;;21.10;99.90;;;;;;4352273;32;20074;-61
2021/05/24 03:43:02;;;;;;;11.73;6.95;;;20.90;99.90;;;;;;4364801;32;20081;-63
2021/05/24 03:45:31;;;;;;;10.88;5.03;;;21.10;99.90;;;;;;4339782;32;20155;-63
2021/05/24 03:47:58;;;;;;;12.18;6.05;;;20.80;99.90;;;;;;4377602;32;20490;-64
2021/05/24 03:50:25;;;;;;;8.52;5.75;;;20.70;99.90;;;;;;4364520;32;20120;-64
2021/05/24 03:52:52;;;;;;;8.80;6.28;;;21.00;99.90;;;;;;4364662;32;20066;-64
2021/05/24 03:55:19;;;;;;;8.85;6.55;;;20.70;99.90;;;;;;4376954;32;20167;-64
2021/05/24 03:57:47;;;;;;;9.63;6.53;;;20.50;99.90;;;;;;4352939;32;20074;-64
2021/05/24 04:00:15;;;;;;;10.45;6.55;;;20.60;99.90;;;;;;4376706;32;20062;-65
2021/05/24 04:02:41;;;;;;;8.52;6.30;;;20.70;99.90;;;;;;4364854;32;20109;-64
2021/05/24 04:05:15;;;;;;;9.48;6.00;;;20.60;99.90;;;;;;4352225;32;20089;-65
2021/05/24 04:07:44;;;;;;;6.40;5.22;;;20.90;99.90;;;;;;4377164;32;20451;-64
2021/05/24 04:10:12;;;;;;;9.32;6.07;;;20.70;99.90;;;;;;4352715;32;20092;-63
2021/05/24 04:12:39;;;;;;;9.48;4.60;;;20.80;99.90;;;;;;4365305;32;20086;-63
2021/05/24 04:15:06;;;;;;;7.55;5.00;;;20.70;99.90;;;;;;4364482;32;20575;-64
2021/05/24 04:17:35;;;;;;;7.70;4.47;;;20.70;99.90;;;;;;4352272;32;20534;-63
2021/05/24 04:20:04;;;;;;;7.60;4.50;;;20.70;99.90;;;;;;4376798;32;20507;-64
2021/05/24 04:22:31;;;;;;;8.57;4.82;;;20.70;99.90;;;;;;4364051;32;20539;-63
2021/05/24 04:24:57;;;;;;;7.55;4.55;;;20.70;99.90;;;;;;4378413;32;20144;-63
2021/05/24 04:27:23;;;;;;;6.35;4.40;;;20.80;99.90;;;;;;4352156;32;20163;-64
2021/05/24 04:29:49;;;;;;;6.78;4.10;;;21.00;99.90;;;;;;4364702;32;20071;-63
2021/05/24 04:32:16;;;;;;;7.37;4.80;;;21.00;99.90;;;;;;4364296;32;20074;-63
2021/05/24 04:34:42;;;;;;;6.78;4.45;;;20.70;99.90;;;;;;4351839;32;20085;-64
2021/05/24 04:37:08;;;;;;;6.57;4.65;;;20.90;99.90;;;;;;4349107;32;20085;-64
2021/05/24 04:39:34;;;;;;;6.78;4.55;;;21.00;99.90;;;;;;4361935;32;20054;-64
2021/05/24 04:42:01;;;;;;;7.18;4.70;;;20.70;99.90;;;;;;4363153;32;20081;-64
2021/05/24 04:44:27;;;;;;;6.60;4.35;;;20.70;99.90;;;;;;4349530;32;20097;-64
2021/05/24 04:46:53;;;;;;;5.68;4.62;;;20.50;99.90;;;;;;4361423;32;20075;-63
2021/05/24 04:49:19;;;;;;;7.78;5.40;;;20.40;99.90;;;;;;4349139;32;20069;-64
2021/05/24 04:51:46;;;;;;;7.05;4.30;;;20.40;99.90;;;;;;4360972;32;20089;-65
2021/05/24 04:54:12;;;;;;;9.43;4.62;;;20.70;99.90;;;;;;4336315;32;20086;-64
2021/05/24 04:56:39;;;;;;;8.32;4.60;;;20.70;99.90;;;;;;4336866;32;20059;-64
2021/05/24 04:59:05;;;;;;;6.40;4.50;;;21.10;99.90;;;;;;4362559;32;20054;-62
2021/05/24 05:01:31;;;;;;;6.82;4.43;;;21.00;99.90;;;;;;4336346;32;20077;-63
2021/05/24 05:03:57;;;;;;;4.95;3.55;;;21.30;99.90;;;;;;4348571;32;20067;-64
2021/05/24 05:06:24;;;;;;;7.05;4.62;;;21.70;99.90;;;;;;4348106;32;20078;-63
2021/05/24 05:08:50;;;;;;;8.63;5.18;;;21.80;99.90;;;;;;4324222;32;20084;-63
2021/05/24 05:11:16;;;;;;;6.22;4.93;;;22.20;99.90;;;;;;4336525;32;20151;-64
2021/05/24 05:13:43;;;;;;;8.60;5.05;;;21.70;99.90;;;;;;4348891;32;20511;-63
2021/05/24 05:16:11;;;;;;;7.12;4.97;;;21.40;99.90;;;;;;4336324;32;20074;-63
2021/05/24 05:18:37;;;;;;;7.65;4.50;;;21.70;99.90;;;;;;4350268;32;20066;-67
2021/05/24 05:21:04;;;;;;;8.82;5.05;;;21.40;99.90;;;;;;4348189;32;20126;-68
2021/05/24 05:23:30;;;;;;;10.95;5.35;;;21.70;99.90;;;;;;4354226;32;20090;-64
2021/05/24 05:25:57;;;;;;;6.70;4.43;;;21.50;99.90;;;;;;4346427;32;20098;-64
2021/05/24 05:28:24;;;;;;;10.15;5.62;;;21.20;99.90;;;;;;4326722;32;20077;-63
2021/05/24 05:30:51;;;;;;;9.95;4.68;;;21.00;99.90;;;;;;4337977;32;20090;-62
2021/05/24 05:33:17;;;;;;;9.57;5.18;;;22.30;99.90;;;;;;4361482;32;20083;-61
2021/05/24 05:35:46;;;;;;;11.63;5.30;;;22.00;99.90;;;;;;4362573;32;20089;-63
2021/05/24 05:38:14;;;;;;;6.72;4.93;;;21.70;99.90;;;;;;4372678;32;20074;-65
2021/05/24 05:40:41;;;;;;;9.48;5.12;;;22.00;99.90;;;;;;4361287;32;20544;-61
2021/05/24 05:43:08;;;;;;;6.07;4.15;;;22.10;99.90;;;;;;4348824;32;20231;-62
2021/05/24 05:45:34;;;;;;;8.02;4.62;;;22.30;99.90;;;;;;4348506;32;20082;-64
2021/05/24 05:48:01;;;;;;;8.95;4.53;;;22.40;99.90;;;;;;4348815;32;20073;-62
2021/05/24 05:50:28;;;;;;;5.95;4.40;;;22.00;99.90;;;;;;4350692;32;20527;-61
2021/05/24 05:52:56;;;;;;;8.05;4.40;;;22.40;99.90;;;;;;4363045;32;20513;-61
2021/05/24 05:55:23;;;;;;;8.40;4.80;;;22.30;99.90;;;;;;4362830;32;20082;-63
2021/05/24 05:57:49;;;;;;;7.53;4.47;;;22.30;99.90;;;;;;4362589;32;20549;-64
2021/05/24 06:00:16;;;;;;;6.37;4.40;;;21.40;99.90;;;;;;4362713;32;20076;-63
2021/05/24 06:02:42;;;;;;;10.32;5.32;;;21.10;99.90;;;;;;4362092;32;20146;-63
2021/05/24 06:05:10;;;;;;;8.25;5.05;;;21.50;99.90;;;;;;4358655;32;20082;-62
2021/05/24 06:07:37;;;;;;;8.88;4.90;;;21.20;99.90;;;;;;4379223;32;20133;-66
2021/05/24 06:10:04;;;;;;;6.43;5.07;;;21.10;99.90;;;;;;4387007;32;20062;-64
2021/05/24 06:12:30;;;;;;;7.53;4.37;;;21.10;99.90;;;;;;4355980;32;20445;-65
2021/05/24 06:14:59;;;;;;;7.10;4.68;;;21.30;99.90;;;;;;4375156;32;20041;-65
2021/05/24 06:17:26;;;;;;;7.65;5.10;;;21.90;99.90;;;;;;4374274;32;20055;-68
2021/05/24 06:19:52;;;;;;;8.93;4.90;;;22.00;99.90;;;;;;4361474;32;20078;-68
2021/05/24 06:22:18;;;;;;;7.20;4.50;;;21.90;99.90;;;;;;4368661;32;20071;-64
2021/05/24 06:24:45;;;;;;;7.30;5.05;;;22.60;99.90;;;;;;4377500;32;20082;-65
2021/05/24 06:27:11;;;;;;;8.02;4.97;;;21.70;99.90;;;;;;4346836;32;20477;-64
2021/05/24 06:29:38;;;;;;;6.05;4.50;;;21.70;99.90;;;;;;4338876;32;20072;-65
2021/05/24 06:32:05;;;;;;;7.97;4.60;;;22.20;99.90;;;;;;4377042;32;20081;-63
2021/05/24 06:34:31;;;;;;;7.47;5.70;;;21.50;99.90;;;;;;4362756;32;20062;-64
2021/05/24 06:36:58;;;;;;;9.00;4.97;;;21.10;99.90;;;;;;4336836;32;20062;-64
2021/05/24 06:39:24;;;;;;;7.47;4.72;;;21.40;99.90;;;;;;4361749;32;20065;-63
2021/05/24 06:41:50;;;;;;;10.07;5.12;;;21.60;99.90;;;;;;4376027;32;20126;-65
2021/05/24 06:44:17;;;;;;;5.68;4.80;;;21.20;99.90;;;;;;4364607;32;20504;-62
2021/05/24 06:46:44;;;;;;;8.15;4.70;;;21.20;99.90;;;;;;4349932;32;20066;-64
2021/05/24 06:49:10;;;;;;;8.88;5.32;;;21.20;99.90;;;;;;4343330;32;20074;-63
2021/05/24 06:51:37;;;;;;;6.95;4.97;;;21.30;99.90;;;;;;4371292;32;20085;-64
2021/05/24 06:54:04;;;;;;;6.45;4.97;;;21.70;99.90;;;;;;4336018;32;20574;-64
2021/05/24 06:56:31;;;;;;;7.50;5.25;;;20.60;99.90;;;;;;4346783;32;20078;-63
2021/05/24 06:58:57;;;;;;;9.35;5.37;;;20.80;99.90;;;;;;4355741;32;20081;-63
2021/05/24 07:01:24;;;;;;;7.70;5.50;;;21.40;99.90;;;;;;4372816;32;20146;-63
2021/05/24 07:03:50;;;;;;;8.05;6.32;;;21.80;99.90;;;;;;4350899;32;20169;-62
2021/05/24 07:06:16;;;;;;;8.65;6.35;;;21.20;99.90;;;;;;4360314;32;20161;-63
2021/05/24 07:08:43;;;;;;;7.10;6.12;;;21.10;99.90;;;;;;4366689;32;20540;-65
2021/05/24 07:11:09;;;;;;;7.28;5.43;;;21.00;99.90;;;;;;4353767;32;20089;-65
2021/05/24 07:13:35;;;;;;;6.85;4.82;;;21.50;99.90;;;;;;4349339;32;20125;-64
2021/05/24 07:16:01;;;;;;;7.25;5.22;;;21.40;99.90;;;;;;4361199;32;20062;-68
2021/05/24 07:18:28;;;;;;;7.87;5.87;;;21.40;99.90;;;;;;4336209;32;20112;-68
2021/05/24 07:20:54;;;;;;;7.95;5.53;;;21.20;99.90;;;;;;4353124;32;20071;-70
2021/05/24 07:23:20;;;;;;;8.35;5.90;;;21.80;99.90;;;;;;4367099;32;20070;-69
2021/05/24 07:25:46;;;;;;;7.75;5.55;;;21.70;99.90;;;;;;4371489;32;20539;-72
2021/05/24 07:28:13;;;;;;;10.60;5.68;;;22.20;99.90;;;;;;4336791;32;20082;-72
2021/05/24 07:30:39;;;;;;;7.87;5.50;;;21.70;99.90;;;;;;4362556;32;20146;-71
2021/05/24 07:33:08;;;;;;;7.97;5.70;;;22.10;99.90;;;;;;4364375;32;20102;-72
2021/05/24 07:35:35;;;;;;;8.32;5.90;;;21.60;99.90;;;;;;4374121;32;20073;-66
2021/05/24 07:38:01;;;;;;;6.57;5.30;;;21.60;99.90;;;;;;4336556;32;20078;-71
2021/05/24 07:40:28;;;;;;;8.07;5.07;;;22.10;99.90;;;;;;4337562;32;20094;-67
2021/05/24 07:42:55;;;;;;;7.95;5.68;;;23.00;99.90;;;;;;4348810;32;20069;-69
2021/05/24 07:45:21;;;;;;;7.55;5.80;;;21.80;99.90;;;;;;4374783;32;20082;-72
2021/05/24 07:47:47;;;;;;;6.62;5.03;;;22.10;99.90;;;;;;4374991;32;20104;-62
2021/05/24 07:50:13;;;;;;;6.22;5.50;;;22.40;99.90;;;;;;4360947;32;20068;-65
2021/05/24 07:52:40;;;;;;;7.40;5.53;;;21.90;99.90;;;;;;4356602;32;20163;-66
2021/05/24 07:55:06;;;;;;;5.87;4.70;;;22.20;99.90;;;;;;4347550;32;20081;-64
2021/05/24 07:57:35;;;;;;;7.57;5.65;;;22.30;99.90;;;;;;4360956;32;20085;-65
2021/05/24 08:00:02;;;;;;;7.37;5.03;;;22.30;99.90;;;;;;4359435;32;20077;-64
2021/05/24 08:02:29;;;;;;;6.57;5.12;;;22.80;99.90;;;;;;4336825;32;20081;-65
2021/05/24 08:04:55;;;;;;;6.55;5.30;;;22.80;99.90;;;;;;4348609;32;20086;-65
2021/05/24 08:07:22;;;;;;;8.48;4.93;;;22.30;99.90;;;;;;4373627;32;20070;-65
2021/05/24 08:09:50;;;;;;;5.15;4.45;;;22.80;99.90;;;;;;4362989;32;20098;-64
2021/05/24 08:12:17;;;;;;;6.97;5.57;;;23.20;99.90;;;;;;4342995;32;20165;-65
2021/05/24 08:14:43;;;;;;;6.57;5.07;;;22.70;99.90;;;;;;4372611;32;20066;-65
2021/05/24 08:17:09;;;;;;;6.57;5.20;;;22.80;99.90;;;;;;4358574;32;20231;-66
2021/05/24 08:19:37;;;;;;;7.45;5.30;;;23.10;99.90;;;;;;4347126;32;20078;-64
2021/05/24 08:22:03;;;;;;;8.90;4.70;;;22.80;99.90;;;;;;4357593;32;20170;-64
2021/05/24 08:24:29;;;;;;;11.43;4.93;;;22.50;99.90;;;;;;4350069;32;20495;-67
2021/05/24 08:26:55;;;;;;;9.52;5.20;;;22.60;99.90;;;;;;4375934;32;20062;-73
2021/05/24 08:29:22;;;;;;;7.70;5.40;;;23.10;99.90;;;;;;4354141;32;20059;-72
2021/05/24 08:31:48;;;;;;;8.40;5.40;;;22.50;99.90;;;;;;4337430;32;20176;-73
2021/05/24 08:34:14;;;;;;;9.13;5.40;;;22.90;99.90;;;;;;4349278;32;20453;-65
2021/05/24 08:36:43;;;;;;;7.62;5.20;;;22.50;99.90;;;;;;4362858;32;20066;-64
2021/05/24 08:39:10;;;;;;;8.15;5.07;;;22.80;99.90;;;;;;4349072;32;20150;-64
2021/05/24 08:41:36;;;;;;;7.22;5.28;;;22.80;99.90;;;;;;4345373;32;20055;-63
2021/05/24 08:44:03;;;;;;;8.32;5.57;;;22.80;99.90;;;;;;4362776;32;20150;-67
2021/05/24 08:46:29;;;;;;;9.05;5.00;;;22.70;99.90;;;;;;4371466;32;20078;-64
2021/05/24 08:48:56;;;;;;;7.95;5.50;;;23.00;99.90;;;;;;4332536;32;20073;-65
2021/05/24 08:51:22;;;;;;;7.95;5.37;;;22.90;99.90;;;;;;4351353;32;20090;-66
2021/05/24 08:53:49;;;;;;;8.45;5.05;;;22.80;99.90;;;;;;4351071;32;20117;-64
2021/05/24 08:56:15;;;;;;;8.50;4.53;;;22.70;99.90;;;;;;4332746;32;20142;-65
2021/05/24 08:58:42;;;;;;;9.18;4.37;;;22.40;99.90;;;;;;4350411;32;20525;-66
2021/05/24 09:01:09;;;;;;;6.85;4.43;;;22.40;99.90;;;;;;4350225;32;20090;-66
2021/05/24 09:03:36;;;;;;;6.55;4.25;;;22.40;99.90;;;;;;4349986;32;20074;-66
2021/05/24 09:06:10;;;;;;;4.87;3.70;;;22.50;99.90;;;;;;4363109;32;20082;-65
2021/05/24 09:08:43;;;;;;;5.53;3.95;;;22.90;99.90;;;;;;4367376;32;20109;-67
2021/05/24 09:11:31;;;;;;;5.68;4.18;;;22.70;99.90;;;;;;4350055;32;20505;-66
2021/05/24 09:13:58;;;;;;;6.60;4.55;;;22.90;99.90;;;;;;4348906;32;20070;-69
2021/05/24 09:16:37;;;;;;;5.93;4.15;;;22.40;99.90;;;;;;4350088;32;20085;-66
2021/05/24 09:19:18;;;;;;;8.18;4.20;;;22.40;99.90;;;;;;4373677;32;20126;-64
2021/05/24 09:21:53;;;;;;;6.97;3.83;;;22.20;99.90;;;;;;4347965;32;20066;-65
2021/05/24 09:24:37;;;;;;;4.93;3.62;;;22.10;99.90;;;;;;4361604;32;20050;-65
2021/05/24 09:27:06;;;;;;;5.95;3.50;;;22.20;99.90;;;;;;4363124;32;20145;-69
2021/05/24 09:29:46;;;;;;;5.78;3.67;;;22.40;99.90;;;;;;4371824;32;20086;-70
2021/05/24 09:32:17;;;;;;;5.05;3.55;;;22.40;99.90;;;;;;4358913;32;20122;-71
2021/05/24 09:34:45;;;;;;;6.70;3.55;;;22.80;99.90;;;;;;4348804;32;20078;-73
2021/05/24 09:37:12;;;;;;;6.10;3.45;;;23.10;99.90;;;;;;4350307;32;20082;-66
2021/05/24 09:39:39;;;;;;;5.85;3.70;;;22.70;99.90;;;;;;4339451;32;20433;-70
2021/05/24 09:42:13;;;;;;;6.78;3.60;;;23.00;99.90;;;;;;4363381;32;20091;-70
2021/05/24 09:44:55;;;;;;;5.65;3.30;;;23.30;99.90;;;;;;4362199;32;20077;-70
2021/05/24 09:47:38;;;;;;;4.20;3.30;;;22.80;99.90;;;;;;4369981;32;20143;-71
2021/05/24 09:50:17;;;;;;;5.57;3.22;;;23.10;99.90;;;;;;4349803;32;20141;-70
2021/05/24 09:52:44;;;;;;;5.07;3.45;;;23.40;99.90;;;;;;4348848;32;20085;-72
2021/05/24 09:55:28;;;;;;;4.97;3.37;;;23.50;99.90;;;;;;4347663;32;20128;-70
2021/05/24 09:58:07;;;;;;;6.37;3.33;;;23.50;99.90;;;;;;4355306;32;20109;-70
2021/05/24 10:00:45;;;;;;;6.15;3.40;;;23.20;99.90;;;;;;4373238;32;20129;-77
2021/05/24 10:03:13;;;;;;;4.80;3.08;;;23.70;99.90;;;;;;4324970;32;20159;-73
2021/05/24 10:05:48;;;;;;;6.72;3.17;;;23.70;99.90;;;;;;4360824;32;20076;-77
2021/05/24 10:08:14;;;;;;;5.40;3.17;;;23.70;99.90;;;;;;4352699;32;20818;-73
2021/05/24 10:10:41;;;;;;;7.03;3.22;;;23.60;99.90;;;;;;4369939;32;20066;-76
2021/05/24 10:13:08;;;;;;;5.90;2.78;;;24.10;99.90;;;;;;4345108;32;20144;-67
2021/05/24 10:15:45;;;;;;;6.70;3.00;;;24.20;99.90;;;;;;4348008;32;20174;-67
2021/05/24 10:18:12;;;;;;;4.47;3.00;;;23.90;99.90;;;;;;4349432;32;20169;-65
2021/05/24 10:20:38;;;;;;;3.62;3.00;;;24.00;99.90;;;;;;4347645;32;20098;-65
2021/05/24 10:23:07;;;;;;;6.62;3.20;;;24.30;99.90;;;;;;4334194;32;20112;-65
2021/05/24 10:25:35;;;;;;;5.53;3.00;;;24.40;99.90;;;;;;4335605;32;20173;-67
2021/05/24 10:28:02;;;;;;;6.75;2.85;;;24.70;99.90;;;;;;4346015;32;20094;-65
2021/05/24 10:30:28;;;;;;;6.10;3.15;;;24.50;99.90;;;;;;4345894;32;20492;-69
2021/05/24 10:33:05;;;;;;;5.47;2.95;;;25.40;99.90;;;;;;4352436;32;20062;-64
2021/05/24 10:35:40;;;;;;;4.72;2.90;;;24.70;99.90;;;;;;4333530;32;20094;-61
2021/05/24 10:38:32;;;;;;;7.70;3.10;;;24.30;99.90;;;;;;4357461;32;20113;-62
2021/05/24 10:41:48;;;;;;;3.83;2.75;;;24.60;99.90;;;;;;4367411;32;20086;-61
2021/05/24 10:44:37;;;;;;;3.05;2.53;;;24.80;99.90;;;;;;4365529;32;20062;-65
2021/05/24 10:47:25;;;;;;;3.87;2.35;;;24.60;99.90;;;;;;4323022;32;20098;-62
2021/05/24 10:50:09;;;;;;;3.40;2.42;;;25.00;99.90;;;;;;4357966;32;20190;-67
2021/05/24 10:52:37;;;;;;;3.70;2.55;;;24.80;98.20;;;;;;4357600;32;20578;-63
2021/05/24 10:55:25;;;;;;;3.75;2.50;;;24.90;98.20;;;;;;4345026;32;20539;-63
2021/05/24 10:58:02;;;;;;;3.95;2.60;;;24.80;99.90;;;;;;4371743;32;20085;-62
2021/05/24 11:00:48;;;;;;;2.72;2.30;;;24.90;99.70;;;;;;4345749;32;20552;-62
2021/05/24 11:03:15;;;;;;;5.93;2.65;;;25.20;99.40;;;;;;4345575;32;20080;-69
2021/05/24 11:05:41;;;;;;;3.35;2.70;;;25.40;97.20;;;;;;4346625;32;20093;-67
2021/05/24 11:08:07;;;;;;;6.97;2.83;;;25.30;97.00;;;;;;4350048;32;20077;-62
2021/05/24 11:10:40;;;;;;;5.40;2.33;;;25.00;97.80;;;;;;4361998;32;20066;-64
2021/05/24 11:13:10;;;;;;;4.45;2.62;;;25.30;97.30;;;;;;4372450;32;20759;-65
2021/05/24 11:15:38;;;;;;;3.72;2.70;;;25.10;97.10;;;;;;4374334;32;20158;-66
2021/05/24 11:18:04;;;;;;;4.82;2.67;;;25.00;96.70;;;;;;4345259;32;20132;-64
2021/05/24 11:21:01;;;;;;;6.75;2.90;;;25.20;98.10;;;;;;4377094;32;20081;-62
2021/05/24 11:26:15;;;;;;;4.62;2.87;;;25.20;97.80;;;;;;4364368;32;20148;-63
2021/05/24 11:28:43;;;;;;;5.22;2.85;;;25.50;94.80;;;;;;4358147;32;20120;-63
2021/05/24 11:31:17;;;;;;;5.70;2.53;;;25.60;96.70;;;;;;4368125;32;20055;-61
2021/05/24 11:33:49;;;;;;;4.50;2.50;;;25.90;97.70;;;;;;4346686;32;20090;-63
2021/05/24 11:36:29;;;;;;;3.30;2.40;;;25.80;97.70;;;;;;4360092;32;20155;-63
2021/05/24 11:39:05;;;;;;;4.15;2.60;;;25.70;98.80;;;;;;4343761;32;20100;-65
2021/05/24 11:41:32;;;;;;;5.00;2.40;;;25.50;98.10;;;;;;4348691;32;20121;-69
2021/05/24 11:44:01;;;;;;;5.85;2.33;;;25.70;97.90;;;;;;4360108;32;20078;-65
2021/05/24 11:46:41;;;;;;;3.72;2.10;;;25.40;97.40;;;;;;4351356;32;20105;-66
2021/05/24 11:49:07;;;;;;;5.22;2.50;;;25.80;96.30;;;;;;4351451;32;20062;-64
2021/05/24 11:51:34;;;;;;;4.95;2.20;;;25.60;95.70;;;;;;4370704;32;20086;-63
2021/05/24 11:54:14;;;;;;;3.20;2.30;;;25.60;96.70;;;;;;4365357;32;20554;-62
2021/05/24 11:56:48;;;;;;;3.62;2.50;;;25.90;95.80;;;;;;4374172;32;20125;-64
2021/05/24 11:59:16;;;;;;;3.33;2.33;;;25.60;95.50;;;;;;4360489;32;20062;-65
2021/05/24 12:01:45;;;;;;;7.28;2.80;;;25.70;96.20;;;;;;4359953;32;20086;-67
2021/05/24 12:04:14;;;;;;;3.20;2.40;;;25.70;97.10;;;;;;4376782;32;20074;-64
2021/05/24 12:07:04;;;;;;;7.62;2.58;;;26.00;98.20;;;;;;4356825;32;20139;-63
2021/05/24 12:09:48;;;;;;;6.12;2.90;;;25.70;98.10;;;;;;4336269;32;20140;-63
2021/05/24 12:12:25;;;;;;;3.05;2.33;;;25.10;99.90;;;;;;4358701;32;20244;-63
2021/05/24 12:14:57;;;;;;;5.07;2.47;;;24.80;99.90;;;;;;4345736;32;20087;-68
2021/05/24 12:17:29;;;;;;;4.07;2.40;;;24.60;99.90;;;;;;4336128;32;20081;-63
2021/05/24 12:19:55;;;;;;;8.90;2.35;;;25.00;99.90;;;;;;4362419;32;20077;-68
2021/05/24 12:22:25;;;;;;;5.57;2.47;;;24.80;99.90;;;;;;4356184;32;20130;-65
2021/05/24 12:24:53;;;;;;;3.40;2.40;;;25.00;99.90;;;;;;4365009;32;20085;-69
2021/05/24 12:27:21;;;;;;;5.93;2.33;;;25.30;98.30;;;;;;4361209;32;20069;-68
2021/05/24 12:29:51;;;;;;;2.80;2.50;;;25.10;99.10;;;;;;4360563;32;20069;-70
2021/05/24 12:32:37;;;;;;;3.50;2.40;;;24.90;99.90;;;;;;4374778;32;20135;-70
2021/05/24 12:35:09;;;;;;;4.70;2.42;;;24.50;99.90;;;;;;4365674;32;20161;-68
2021/05/24 12:37:37;;;;;;;4.10;2.40;;;24.50;99.90;;;;;;4358643;32;20101;-65
2021/05/24 12:40:09;;;;;;;6.05;2.70;;;25.00;98.50;;;;;;4345127;32;20081;-70
2021/05/24 12:42:38;;;;;;;6.15;2.60;;;25.00;98.60;;;;;;4363845;32;20082;-64
2021/05/24 12:45:07;;;;;;;4.28;2.50;;;25.20;97.70;;;;;;4364185;32;20505;-64
2021/05/24 12:47:34;;;;;;;5.50;2.80;;;25.40;97.80;;;;;;4351607;32;20169;-66
2021/05/24 12:50:17;;;;;;;6.50;2.70;;;25.70;96.30;;;;;;4360144;32;20472;-64
2021/05/24 12:52:43;;;;;;;3.85;2.00;;;25.20;96.80;;;;;;4358297;32;20073;-66